Lewisville's Hourly Summary for Tuesday, April 18, 2017
Hour Temp
(f)
RH
(%)
Solar Rad.
(MJ/m2)
Rainfall
(in)
Wind
(mph)
4/18/2017 12:00 AM 64 92 0 0 1.87
4/18/2017 1:00 AM 64 90 0 0 1.47
4/18/2017 2:00 AM 63 90 0 0 0.21
4/18/2017 3:00 AM 63 92 0 0 1.55
4/18/2017 4:00 AM 63 94 0 0 2.25
4/18/2017 5:00 AM 62 94 0 0 0.54
4/18/2017 6:00 AM 62 95 0 0 0
4/18/2017 7:00 AM 62 96 0 0 0.05
4/18/2017 8:00 AM 63 95 0.18 0 0.17
4/18/2017 9:00 AM 66 88 0.55 0 0.87
4/18/2017 10:00 AM 68 76 1.25 0 2.4
4/18/2017 11:00 AM 71 71 2.45 0 5.16
4/18/2017 12:00 PM 74 65 2.78 0 4.83
4/18/2017 1:00 PM 76 61 2.71 0 5.16
4/18/2017 2:00 PM 78 53 2.47 0 5.3
4/18/2017 3:00 PM 79 53 2.76 0 6.92
4/18/2017 4:00 PM 79 51 2.36 0 7.14
4/18/2017 5:00 PM 79 51 1.99 0 5.48
4/18/2017 6:00 PM 79 51 1.44 0 5.75
4/18/2017 7:00 PM 79 53 0.79 0 6
4/18/2017 8:00 PM 76 55 0.17 0 6.55
4/18/2017 9:00 PM 72 65 0 0 5.33
4/18/2017 10:00 PM 70 74 0 0 4.31
4/18/2017 11:00 PM 69 74 0 0 4.39
Data Summary 70 74 21.90 0.00 3.49